createdAt,value
2022-10-31T00:02:02.912Z,13.70
2022-10-31T00:05:46.828Z,13.70
2022-10-31T00:09:28.798Z,13.60
2022-10-31T00:13:11.658Z,13.60
2022-10-31T00:16:53.661Z,13.70
2022-10-31T00:20:36.109Z,13.70
2022-10-31T00:24:18.077Z,13.70
2022-10-31T00:28:00.298Z,13.70
2022-10-31T00:31:42.484Z,13.70
2022-10-31T00:35:24.517Z,13.70
2022-10-31T00:39:06.599Z,13.70
2022-10-31T00:42:48.651Z,13.70
2022-10-31T00:46:30.603Z,13.60
2022-10-31T00:50:12.587Z,13.60
2022-10-31T00:53:54.488Z,13.60
2022-10-31T00:57:36.436Z,13.50
2022-10-31T01:01:18.747Z,13.40
2022-10-31T01:05:01.086Z,13.40
2022-10-31T01:08:43.541Z,13.30
2022-10-31T01:12:25.618Z,13.30
2022-10-31T01:16:09.701Z,13.30
2022-10-31T01:19:51.663Z,13.30
2022-10-31T01:23:34.333Z,13.30
2022-10-31T01:27:16.682Z,13.30
2022-10-31T01:31:02.985Z,13.30
2022-10-31T01:34:44.961Z,13.30
2022-10-31T01:38:27.369Z,13.30
2022-10-31T01:42:21.640Z,13.40
2022-10-31T01:46:03.597Z,13.30
2022-10-31T01:49:55.852Z,13.40
2022-10-31T01:53:38.362Z,13.40
2022-10-31T01:57:22.527Z,13.50
2022-10-31T02:01:07.925Z,13.50
2022-10-31T02:04:50.404Z,13.50
2022-10-31T02:08:35.735Z,13.50
2022-10-31T02:12:18.899Z,13.50
2022-10-31T02:16:01.623Z,13.70
2022-10-31T02:19:46.332Z,13.70
2022-10-31T02:23:34.473Z,13.70
2022-10-31T02:27:41.276Z,13.70
2022-10-31T02:31:41.150Z,13.80
2022-10-31T02:35:42.713Z,13.80
2022-10-31T02:39:31.642Z,13.80
2022-10-31T02:43:31.153Z,13.80
2022-10-31T02:47:19.644Z,13.80
2022-10-31T02:51:04.486Z,13.80
2022-10-31T02:54:48.336Z,13.80
2022-10-31T02:58:34.841Z,13.80
2022-10-31T03:02:33.493Z,13.70
2022-10-31T03:06:55.022Z,13.70
2022-10-31T03:10:58.064Z,13.70
2022-10-31T03:14:49.329Z,13.70
2022-10-31T03:18:35.672Z,13.70
2022-10-31T03:22:30.707Z,13.70
2022-10-31T03:26:15.049Z,13.80
2022-10-31T03:30:00.465Z,13.80
2022-10-31T03:33:43.862Z,13.90
2022-10-31T03:37:29.063Z,13.90
2022-10-31T03:45:07.490Z,14.00
2022-10-31T03:48:49.720Z,14.10
2022-10-31T03:52:46.801Z,14.20
2022-10-31T03:56:39.079Z,14.20
2022-10-31T04:00:21.370Z,14.20
2022-10-31T04:04:04.066Z,14.20
2022-10-31T04:07:51.726Z,14.20
2022-10-31T04:11:38.442Z,14.20
2022-10-31T04:15:21.576Z,14.20
2022-10-31T04:19:03.679Z,14.30
2022-10-31T04:22:46.103Z,14.30
2022-10-31T04:26:28.053Z,14.40
2022-10-31T04:30:10.511Z,14.40
2022-10-31T04:33:52.648Z,14.40
2022-10-31T04:37:34.763Z,14.40
2022-10-31T04:41:16.714Z,14.30
2022-10-31T04:44:58.818Z,14.40
2022-10-31T04:48:40.989Z,14.40
2022-10-31T04:52:23.140Z,14.40
2022-10-31T04:56:05.397Z,14.40
2022-10-31T04:59:47.344Z,14.40
2022-10-31T05:03:29.360Z,14.40
2022-10-31T05:07:11.399Z,14.40
2022-10-31T05:10:53.567Z,14.30
2022-10-31T05:14:35.582Z,14.30
2022-10-31T05:18:17.661Z,14.20
2022-10-31T05:21:59.745Z,14.20
2022-10-31T05:25:42.364Z,14.10
2022-10-31T05:29:24.477Z,14.10
2022-10-31T05:33:06.494Z,14.10
2022-10-31T05:36:48.474Z,14.20
2022-10-31T05:40:30.931Z,14.20
2022-10-31T05:44:12.989Z,14.20
2022-10-31T05:47:57.661Z,14.20
2022-10-31T05:51:40.020Z,14.20
2022-10-31T05:55:22.134Z,14.10
2022-10-31T05:59:04.187Z,14.10
2022-10-31T06:02:46.442Z,14.10
2022-10-31T06:06:28.951Z,14.10
2022-10-31T06:10:11.150Z,14.10
2022-10-31T06:13:53.190Z,14.00
2022-10-31T06:17:36.491Z,14.00
2022-10-31T06:21:19.400Z,14.00
2022-10-31T06:25:01.593Z,13.90
2022-10-31T06:28:43.735Z,13.90
2022-10-31T06:32:25.829Z,13.90
2022-10-31T06:36:08.061Z,13.80
2022-10-31T06:39:50.140Z,13.70
2022-10-31T06:43:32.265Z,13.70
2022-10-31T06:47:14.369Z,13.60
2022-10-31T06:51:02.577Z,13.60
2022-10-31T06:54:47.557Z,13.60
2022-10-31T06:58:29.609Z,13.60
2022-10-31T07:02:12.448Z,13.50
2022-10-31T07:05:57.766Z,13.50
2022-10-31T07:09:39.894Z,13.50
2022-10-31T07:13:26.517Z,13.60
2022-10-31T07:17:11.759Z,13.50
2022-10-31T07:20:54.409Z,13.50
2022-10-31T07:24:36.393Z,13.50
2022-10-31T07:28:18.335Z,13.50
2022-10-31T07:32:00.391Z,13.60
2022-10-31T07:35:42.447Z,13.60
2022-10-31T07:39:24.491Z,13.70
2022-10-31T07:43:10.066Z,13.70
2022-10-31T07:46:58.471Z,13.70
2022-10-31T07:50:41.155Z,13.70
2022-10-31T07:54:23.151Z,13.80
2022-10-31T07:58:10.733Z,13.80
2022-10-31T08:01:52.897Z,13.90
2022-10-31T08:05:36.074Z,14.00
2022-10-31T08:09:18.181Z,14.20
2022-10-31T08:13:09.005Z,14.30
2022-10-31T08:16:51.164Z,14.50
2022-10-31T08:20:33.595Z,14.60
2022-10-31T08:24:18.087Z,14.70
2022-10-31T08:28:00.763Z,14.90
2022-10-31T08:31:43.573Z,15.10
2022-10-31T08:35:25.733Z,15.20
2022-10-31T08:39:07.844Z,15.40
2022-10-31T08:42:58.155Z,15.50
2022-10-31T08:46:40.043Z,15.60
2022-10-31T08:50:22.056Z,15.70
2022-10-31T08:54:04.345Z,15.80
2022-10-31T08:57:47.635Z,15.90
2022-10-31T09:01:29.838Z,16.10
2022-10-31T09:05:12.225Z,16.20
2022-10-31T09:08:54.232Z,16.40
2022-10-31T09:12:36.454Z,16.70
2022-10-31T09:16:18.517Z,17.20
2022-10-31T09:20:00.640Z,18.00
2022-10-31T09:23:42.696Z,18.30
2022-10-31T09:27:24.661Z,18.30
2022-10-31T09:31:06.730Z,18.20
2022-10-31T09:34:48.694Z,17.90
2022-10-31T09:38:30.718Z,17.60
2022-10-31T09:42:54.459Z,17.30
2022-10-31T09:47:14.930Z,17.10
2022-10-31T09:51:04.327Z,16.80
2022-10-31T09:55:24.886Z,16.80
2022-10-31T09:59:12.910Z,16.80
2022-10-31T10:02:59.043Z,16.80
2022-10-31T10:06:46.236Z,16.80
2022-10-31T10:10:51.245Z,16.90
2022-10-31T10:14:51.512Z,17.00
2022-10-31T10:18:51.954Z,17.30
2022-10-31T10:22:52.708Z,17.80
2022-10-31T10:26:39.029Z,18.60
2022-10-31T10:30:39.576Z,19.70
2022-10-31T10:34:38.502Z,20.50
2022-10-31T10:38:46.416Z,20.50
2022-10-31T10:42:47.702Z,20.20
2022-10-31T10:47:00.150Z,19.70
2022-10-31T10:50:51.778Z,19.30
2022-10-31T10:54:52.286Z,18.70
2022-10-31T10:58:34.528Z,18.30
2022-10-31T11:02:25.202Z,18.10
2022-10-31T11:06:23.584Z,18.00
2022-10-31T11:10:14.134Z,17.90
2022-10-31T11:14:06.686Z,18.30
2022-10-31T11:17:52.043Z,18.70
2022-10-31T11:21:35.873Z,18.80
2022-10-31T11:25:20.917Z,18.90
2022-10-31T11:29:06.859Z,18.70
2022-10-31T11:32:54.044Z,18.70
2022-10-31T11:36:39.425Z,18.70
2022-10-31T11:40:27.253Z,19.20
2022-10-31T11:44:28.922Z,19.50
2022-10-31T11:48:22.976Z,20.10
2022-10-31T11:52:14.835Z,20.50
2022-10-31T11:56:15.787Z,20.10
2022-10-31T12:00:00.312Z,20.00
2022-10-31T12:03:52.918Z,20.20
2022-10-31T12:07:35.318Z,21.30
2022-10-31T12:11:42.591Z,22.70
2022-10-31T12:15:32.210Z,23.80
2022-10-31T12:19:40.371Z,24.70
2022-10-31T12:23:44.344Z,25.60
2022-10-31T12:27:38.168Z,25.80
2022-10-31T12:31:51.539Z,26.00
2022-10-31T12:35:45.578Z,25.90
2022-10-31T12:39:56.173Z,25.30
2022-10-31T12:43:57.530Z,24.90
2022-10-31T12:47:59.644Z,24.60
2022-10-31T12:51:50.519Z,24.30
2022-10-31T12:55:52.220Z,24.00
2022-10-31T12:59:52.217Z,23.90
2022-10-31T13:03:49.725Z,23.50
2022-10-31T13:07:44.521Z,22.50
2022-10-31T13:11:32.288Z,21.20
2022-10-31T13:15:20.014Z,20.20
2022-10-31T13:19:05.515Z,19.70
2022-10-31T13:22:55.212Z,19.30
2022-10-31T13:26:48.531Z,19.10
2022-10-31T13:30:34.771Z,19.10
2022-10-31T13:34:35.209Z,19.00
2022-10-31T13:38:40.304Z,18.90
2022-10-31T13:42:45.706Z,18.70
2022-10-31T13:46:35.736Z,18.70
2022-10-31T13:50:26.929Z,18.60
2022-10-31T13:54:35.216Z,18.40
2022-10-31T13:58:24.891Z,18.20
2022-10-31T14:02:18.997Z,18.10
2022-10-31T14:06:01.541Z,17.90
2022-10-31T14:10:17.950Z,17.80
2022-10-31T14:14:01.586Z,17.70
2022-10-31T14:18:06.750Z,17.40
2022-10-31T14:21:50.562Z,17.20
2022-10-31T14:25:36.273Z,17.20
2022-10-31T14:29:18.283Z,17.20
2022-10-31T14:33:03.345Z,17.20
2022-10-31T14:37:14.786Z,17.00
2022-10-31T14:41:34.613Z,16.80
2022-10-31T14:45:36.271Z,16.60
2022-10-31T14:50:02.345Z,16.20
2022-10-31T14:53:56.159Z,15.70
2022-10-31T14:57:39.768Z,15.30
2022-10-31T15:01:29.756Z,15.10
2022-10-31T15:05:13.909Z,15.00
2022-10-31T15:08:56.103Z,14.80
2022-10-31T15:12:41.127Z,14.70
2022-10-31T15:20:24.141Z,14.70
2022-10-31T15:24:06.721Z,14.60
2022-10-31T15:27:50.298Z,14.60
2022-10-31T15:31:33.130Z,14.70
2022-10-31T15:35:30.080Z,14.70
2022-10-31T15:39:12.853Z,14.70
2022-10-31T15:42:59.619Z,14.60
2022-10-31T15:46:42.052Z,14.60
2022-10-31T15:50:55.468Z,14.50
2022-10-31T15:54:48.535Z,14.40
2022-10-31T15:58:32.181Z,14.20
2022-10-31T16:02:16.103Z,14.10
2022-10-31T16:06:05.128Z,14.00
2022-10-31T16:10:02.171Z,14.00
2022-10-31T16:14:05.849Z,13.90
2022-10-31T16:17:54.150Z,14.00
2022-10-31T16:21:40.458Z,13.90
2022-10-31T16:25:26.661Z,13.80
2022-10-31T16:29:34.668Z,13.80
2022-10-31T16:33:37.424Z,13.90
2022-10-31T16:37:19.398Z,13.90
2022-10-31T16:41:03.174Z,13.90
2022-10-31T16:44:47.998Z,13.80
2022-10-31T16:48:30.098Z,13.80
2022-10-31T16:52:12.408Z,13.80
2022-10-31T16:56:00.507Z,13.80
2022-10-31T16:59:42.999Z,13.90
2022-10-31T17:03:25.138Z,13.80
2022-10-31T17:07:07.122Z,13.70
2022-10-31T17:10:53.096Z,13.80
2022-10-31T17:14:35.387Z,13.70
2022-10-31T17:18:21.649Z,13.80
2022-10-31T17:22:12.269Z,13.70
2022-10-31T17:25:54.407Z,13.70
2022-10-31T17:29:36.464Z,13.80
2022-10-31T17:33:18.520Z,13.80
2022-10-31T17:37:00.547Z,13.80
2022-10-31T17:40:42.976Z,13.80
2022-10-31T17:44:25.317Z,13.80
2022-10-31T17:48:09.901Z,13.80
2022-10-31T17:51:55.287Z,13.80
2022-10-31T17:55:37.795Z,13.80
2022-10-31T17:59:19.900Z,13.80
2022-10-31T18:03:05.317Z,13.80
2022-10-31T18:06:50.165Z,13.80
2022-10-31T18:10:32.789Z,13.80
2022-10-31T18:14:14.891Z,13.90
2022-10-31T18:17:56.898Z,13.90
2022-10-31T18:21:39.219Z,14.00
2022-10-31T18:25:21.425Z,14.00
2022-10-31T18:29:04.246Z,14.00
2022-10-31T18:32:50.486Z,14.10
2022-10-31T18:36:35.259Z,14.10
2022-10-31T18:40:17.445Z,14.20
2022-10-31T18:44:02.757Z,14.20
2022-10-31T18:47:44.821Z,14.20
2022-10-31T18:51:27.240Z,14.30
2022-10-31T18:55:09.751Z,14.30
2022-10-31T18:58:52.162Z,14.40
2022-10-31T19:02:34.372Z,14.50
2022-10-31T19:06:16.493Z,14.50
2022-10-31T19:09:58.687Z,14.60
2022-10-31T19:14:03.076Z,14.60
2022-10-31T19:17:45.439Z,14.70
2022-10-31T19:21:30.693Z,14.70
2022-10-31T19:25:15.040Z,14.70
2022-10-31T19:28:57.860Z,14.70
2022-10-31T19:32:41.469Z,14.70
2022-10-31T19:36:24.549Z,14.70
2022-10-31T19:40:09.210Z,14.70
2022-10-31T19:43:56.948Z,14.70
2022-10-31T19:47:39.155Z,14.70
2022-10-31T19:51:22.651Z,14.70
2022-10-31T19:55:05.638Z,14.70
2022-10-31T19:58:50.766Z,14.60
2022-10-31T20:02:32.978Z,14.60
2022-10-31T20:06:23.877Z,14.60
2022-10-31T20:10:06.761Z,14.60
2022-10-31T20:13:49.152Z,14.60
2022-10-31T20:17:31.436Z,14.60
2022-10-31T20:21:20.057Z,14.60
2022-10-31T20:25:02.499Z,14.60
2022-10-31T20:28:45.791Z,14.60
2022-10-31T20:32:36.346Z,14.60
2022-10-31T20:36:23.222Z,14.50
2022-10-31T20:40:05.873Z,14.50
2022-10-31T20:43:49.946Z,14.50
2022-10-31T20:47:32.166Z,14.50
2022-10-31T20:51:23.934Z,14.50
2022-10-31T20:55:07.040Z,14.50
2022-10-31T20:58:50.064Z,14.40
2022-10-31T21:02:32.322Z,14.30
2022-10-31T21:06:19.753Z,14.20
2022-10-31T21:10:01.977Z,14.20
2022-10-31T21:13:46.335Z,14.00
2022-10-31T21:17:28.834Z,13.90
2022-10-31T21:21:26.287Z,13.70
2022-10-31T21:25:13.057Z,13.60
2022-10-31T21:28:58.334Z,13.40
2022-10-31T21:32:40.378Z,13.30
2022-10-31T21:36:22.589Z,13.20
2022-10-31T21:40:04.841Z,13.20
2022-10-31T21:43:49.333Z,13.20
2022-10-31T21:47:31.478Z,13.10
2022-10-31T21:51:21.839Z,13.10
2022-10-31T21:55:06.768Z,13.10
2022-10-31T21:58:49.690Z,13.00
2022-10-31T22:02:31.690Z,13.00
2022-10-31T22:06:15.393Z,12.90
2022-10-31T22:09:57.391Z,12.90
2022-10-31T22:13:40.470Z,12.90
2022-10-31T22:17:22.495Z,12.90
2022-10-31T22:21:13.424Z,12.90
2022-10-31T22:24:55.437Z,12.90
2022-10-31T22:28:37.443Z,12.80
2022-10-31T22:32:21.844Z,12.70
2022-10-31T22:36:06.499Z,12.70
2022-10-31T22:39:48.768Z,12.50
2022-10-31T22:43:31.837Z,12.40
2022-10-31T22:47:14.005Z,12.20
2022-10-31T22:51:32.743Z,12.20
2022-10-31T22:55:24.528Z,12.00
2022-10-31T22:59:10.687Z,11.90
2022-10-31T23:02:52.791Z,11.90
2022-10-31T23:06:36.946Z,11.80
2022-10-31T23:10:19.342Z,11.80
2022-10-31T23:14:14.273Z,11.80
2022-10-31T23:17:58.015Z,11.70
2022-10-31T23:21:58.335Z,11.70
2022-10-31T23:25:59.091Z,11.70
2022-10-31T23:29:55.918Z,11.70
2022-10-31T23:33:38.431Z,11.70
2022-10-31T23:37:25.876Z,11.60
2022-10-31T23:41:08.199Z,11.60
2022-10-31T23:44:50.828Z,11.70
2022-10-31T23:48:32.920Z,11.70
2022-10-31T23:52:16.191Z,11.70
2022-10-31T23:55:58.350Z,11.70
2022-10-31T23:59:40.445Z,11.70
